Bookmark and Share
Track history (hours):
 

Thaani

Last reported at 2014-Apr-19 14:32 UTC. Time now 2014-Apr-23 07:05 UTC.
Position N 51°30' W 000°04'.

Length 14 m.

Type: Pleasure craft. MMSI: 269102970.

NotesDate/timePositionNaut miles runAvg speedWind from/ knotsBaromVisibWave heightAir tempDewpointWater temp
2014-Apr-19 14:32N 51°30' W 000°04'10 4.8
2014-Apr-19 12:33N 51°29' E 000°11'8 8.2
2014-Apr-19 11:33N 51°27' E 000°24'7 7.0
2014-Apr-19 10:33N 51°30' E 000°33'6 6.1
2014-Apr-19 09:33N 51°30' E 000°43'5 0.3
2014-Apr-18 17:14N 51°25' E 000°44'1 1.4
2014-Apr-18 16:33N 51°26' E 000°44'5 4.3
2014-Apr-18 15:29N 51°28' E 000°50'6 6.3
2014-Apr-18 14:28N 51°30' E 001°00'8 7.5
2014-Apr-18 13:28N 51°29' E 001°13'7 7.6
2014-Apr-18 12:33N 51°28' E 001°23'6 5.9
2014-Apr-18 11:33N 51°23' E 001°29'4 3.6
2014-Apr-18 10:34N 51°19' E 001°27'1 1.2
2014-Apr-18 09:31N 51°20' E 001°25'0 0.0
2014-Apr-17 17:31N 51°20' E 001°25'1 0.3
2014-Apr-17 15:10N 51°19' E 001°25'1 0.4
2014-Apr-17 13:21N 51°20' E 001°25'0 0.0
2014-Apr-17 12:33N 51°20' E 001°25'4 4.3
2014-Apr-17 11:34N 51°20' E 001°32'6 6.4
2014-Apr-17 10:33N 51°16' E 001°40'6 6.1
2014-Apr-17 09:30N 51°13' E 001°49'7 6.7
2014-Apr-17 08:28N 51°08' E 001°58'7 7.8
2014-Apr-17 07:32N 51°05' E 002°08'7 6.8
2014-Apr-17 06:33N 51°04' E 002°19'2 0.1
2014-Apr-16 11:18N 51°03' E 002°22'1 1.6
2014-Apr-16 10:33N 51°04' E 002°22'6 6.1
2014-Apr-16 09:33N 51°07' E 002°31'8 8.2
2014-Apr-16 08:32N 51°13' E 002°39'9 8.9
2014-Apr-16 07:33N 51°20' E 002°48'9 8.9
2014-Apr-16 06:32N 51°23' E 003°01'9 8.7
2014-Apr-16 05:32N 51°25' E 003°15'9 9.0
2014-Apr-16 04:33N 51°25' E 003°29'  
2014-Apr-13 16:30N 51°24' E 003°34'0 0.5
2014-Apr-13 15:33N 51°24' E 003°34'3 3.5
2014-Apr-13 14:33N 51°28' E 003°36'2 2.2
2014-Apr-13 13:31N 51°30' E 003°37'4 3.7
2014-Apr-13 12:33N 51°33' E 003°40'4 3.8
2014-Apr-13 11:33N 51°33' E 003°46'4 3.6
2014-Apr-13 10:31N 51°33' E 003°52'4 4.0
2014-Apr-13 09:33N 51°32' E 003°58'4 4.3
2014-Apr-13 08:33N 51°36' E 004°01'7 0.3
2014-Apr-12 11:11N 51°40' E 004°11'4 5.9
2014-Apr-12 10:30N 51°39' E 004°17'16 0.8
2014-Apr-11 15:23N 51°48' E 004°38'3 3.1
2014-Apr-11 14:32N 51°50' E 004°40'1 1.4
2014-Apr-11 13:31N 51°52' E 004°39'4 4.5
2014-Apr-11 12:31N 51°55' E 004°35'4 3.9
2014-Apr-11 11:33N 51°58' E 004°38'4 3.6
2014-Apr-11 10:33N 52°01' E 004°41'3 2.9
2014-Apr-11 09:33N 52°04' E 004°40'5 4.5
2014-Apr-11 08:31N 52°09' E 004°39'3 3.1
2014-Apr-11 07:33N 52°11' E 004°38'3 0.3
2014-Apr-10 19:07N 52°13' E 004°34'0 0.0
2014-Apr-10 18:16N 52°13' E 004°34'0 0.0
2014-Apr-10 17:22N 52°13' E 004°34'1 0.8
2014-Apr-10 16:28N 52°14' E 004°33'0 0.0
2014-Apr-10 15:25N 52°14' E 004°33'0 0.1
2014-Apr-10 14:33N 52°14' E 004°33'4 4.2
2014-Apr-10 13:33N 52°17' E 004°36'4 3.7
2014-Apr-10 12:26N 52°21' E 004°38'2 2.0
2014-Apr-10 11:17N 52°24' E 004°39'1 1.1
2014-Apr-10 10:33N 52°24' E 004°40'2 1.6
2014-Apr-10 09:28N 52°25' E 004°42'0 0.3
2014-Apr-10 08:31N 52°25' E 004°42'6 6.0
2014-Apr-10 07:33N 52°25' E 004°51'3 0.2
2014-Apr-09 19:31N 52°23' E 004°54'0 0.0
2014-Apr-09 18:31N 52°23' E 004°54'0 0.0
2014-Apr-09 17:31N 52°23' E 004°54'0 0.0
2014-Apr-09 16:31N 52°23' E 004°54'0 0.0
2014-Apr-09 15:31N 52°23' E 004°54'0 0.3
2014-Apr-09 14:33N 52°23' E 004°55'  

Dump ship's entire track history

sailing weather and tide predictions

Thaani — HBY4477 — position and weather